createdAt,value
2019-01-08T00:00:37.743Z,85.57
2019-01-08T00:01:37.742Z,85.47
2019-01-08T00:02:37.764Z,85.47
2019-01-08T00:03:37.740Z,85.57
2019-01-08T00:04:37.784Z,85.76
2019-01-08T00:05:37.767Z,85.47
2019-01-08T00:06:37.785Z,85.28
2019-01-08T00:07:37.776Z,85.38
2019-01-08T00:08:37.769Z,85.38
2019-01-08T00:09:37.843Z,85.38
2019-01-08T00:10:37.780Z,85.19
2019-01-08T00:11:37.778Z,85.28
2019-01-08T00:12:37.790Z,85.66
2019-01-08T00:13:37.808Z,85.47
2019-01-08T00:14:37.831Z,84.91
2019-01-08T00:15:37.851Z,84.91
2019-01-08T00:16:37.803Z,84.81
2019-01-08T00:17:37.801Z,84.91
2019-01-08T00:18:37.818Z,84.81
2019-01-08T00:19:37.868Z,84.72
2019-01-08T00:20:37.839Z,85.57
2019-01-08T00:21:37.816Z,85.10
2019-01-08T00:22:37.827Z,85.47
2019-01-08T00:23:37.842Z,85.47
2019-01-08T00:24:37.827Z,85.47
2019-01-08T00:25:37.892Z,85.28
2019-01-08T00:26:37.845Z,85.47
2019-01-08T00:27:37.863Z,85.38
2019-01-08T00:28:43.141Z,85.10
2019-01-08T00:29:37.926Z,85.19
2019-01-08T00:30:37.873Z,85.47
2019-01-08T00:31:37.922Z,85.47
2019-01-08T00:32:37.885Z,84.72
2019-01-08T00:33:37.897Z,84.72
2019-01-08T00:34:37.877Z,85.28
2019-01-08T00:35:37.934Z,84.62
2019-01-08T00:36:37.891Z,85.00
2019-01-08T00:37:37.891Z,84.81
2019-01-08T00:38:37.885Z,84.81
2019-01-08T00:39:37.914Z,84.81
2019-01-08T00:40:37.913Z,84.81
2019-01-08T00:41:37.948Z,84.72
2019-01-08T00:42:37.952Z,85.00
2019-01-08T00:43:38.001Z,84.91
2019-01-08T00:44:37.915Z,84.81
2019-01-08T00:45:37.975Z,85.76
2019-01-08T00:46:37.923Z,84.81
2019-01-08T00:47:37.988Z,84.81
2019-01-08T00:48:37.937Z,84.81
2019-01-08T00:49:37.951Z,84.62
2019-01-08T00:50:37.986Z,84.81
2019-01-08T00:51:37.946Z,85.00
2019-01-08T00:52:37.985Z,84.81
2019-01-08T00:53:38.009Z,84.81
2019-01-08T00:54:37.982Z,85.76
2019-01-08T00:55:37.980Z,85.57
2019-01-08T00:56:37.991Z,84.81
2019-01-08T00:57:37.982Z,85.00
2019-01-08T00:58:38.013Z,84.91
2019-01-08T00:59:37.998Z,84.76
2019-01-08T01:00:38.000Z,84.76
2019-01-08T01:01:37.996Z,85.14
2019-01-08T01:02:38.007Z,84.76
2019-01-08T01:03:38.051Z,84.81
2019-01-08T01:04:38.016Z,84.81
2019-01-08T01:05:38.011Z,85.00
2019-01-08T01:06:38.024Z,84.81
2019-01-08T01:07:38.030Z,85.47
2019-01-08T01:08:38.024Z,85.47
2019-01-08T01:09:38.066Z,85.24
2019-01-08T01:10:38.034Z,85.10
2019-01-08T01:11:38.042Z,85.42
2019-01-08T01:12:38.040Z,84.76
2019-01-08T01:13:38.071Z,84.85
2019-01-08T01:14:38.087Z,84.66
2019-01-08T01:15:38.056Z,85.04
2019-01-08T01:16:38.069Z,84.95
2019-01-08T01:17:38.085Z,85.04
2019-01-08T01:18:38.078Z,84.95
2019-01-08T01:19:38.121Z,84.95
2019-01-08T01:20:38.097Z,84.38
2019-01-08T01:21:38.090Z,84.56
2019-01-08T01:22:38.078Z,84.56
2019-01-08T01:23:38.093Z,84.47
2019-01-08T01:24:38.115Z,84.76
2019-01-08T01:25:38.118Z,84.56
2019-01-08T01:26:38.092Z,84.56
2019-01-08T01:27:38.113Z,84.56
2019-01-08T01:28:38.102Z,84.47
2019-01-08T01:29:38.114Z,84.56
2019-01-08T01:30:38.167Z,84.47
2019-01-08T01:31:38.157Z,84.38
2019-01-08T01:32:38.138Z,84.47
2019-01-08T01:33:38.172Z,84.38
2019-01-08T01:34:38.178Z,84.66
2019-01-08T01:35:38.314Z,84.56
2019-01-08T01:36:38.162Z,84.56
2019-01-08T01:37:38.195Z,84.47
2019-01-08T01:38:38.180Z,83.90
2019-01-08T01:39:38.155Z,84.38
2019-01-08T01:40:38.154Z,84.28
2019-01-08T01:41:38.226Z,84.28
2019-01-08T01:42:38.186Z,84.19
2019-01-08T01:43:38.175Z,84.56
2019-01-08T01:44:38.179Z,84.47
2019-01-08T01:45:38.215Z,83.62
2019-01-08T01:46:38.229Z,83.81
2019-01-08T01:47:38.204Z,83.81
2019-01-08T01:48:38.193Z,83.81
2019-01-08T01:49:38.202Z,83.81
2019-01-08T01:50:38.199Z,83.52
2019-01-08T01:51:38.275Z,83.71
2019-01-08T01:52:38.242Z,83.81
2019-01-08T01:53:38.250Z,83.62
2019-01-08T01:54:38.215Z,83.42
2019-01-08T01:55:38.245Z,83.62
2019-01-08T01:56:38.227Z,83.81
2019-01-08T01:57:38.262Z,83.62
2019-01-08T01:58:38.235Z,83.81
2019-01-08T01:59:38.249Z,83.81
2019-01-08T02:00:38.252Z,83.90
2019-01-08T02:01:38.269Z,84.76
2019-01-08T02:02:38.296Z,84.28
2019-01-08T02:03:38.265Z,84.09
2019-01-08T02:04:38.268Z,84.56
2019-01-08T02:05:38.276Z,84.28
2019-01-08T02:06:38.270Z,84.28
2019-01-08T02:07:38.336Z,84.28
2019-01-08T02:08:38.330Z,84.09
2019-01-08T02:09:38.295Z,84.47
2019-01-08T02:10:38.305Z,84.47
2019-01-08T02:11:38.302Z,84.56
2019-01-08T02:12:38.301Z,84.47
2019-01-08T02:13:38.325Z,84.56
2019-01-08T02:14:38.343Z,84.56
2019-01-08T02:15:38.309Z,84.47
2019-01-08T02:16:38.372Z,84.38
2019-01-08T02:17:38.325Z,84.95
2019-01-08T02:18:38.337Z,85.04
2019-01-08T02:19:38.373Z,84.72
2019-01-08T02:20:38.385Z,84.81
2019-01-08T02:21:38.356Z,84.91
2019-01-08T02:22:38.354Z,84.95
2019-01-08T02:23:38.354Z,84.81
2019-01-08T02:24:38.419Z,85.38
2019-01-08T02:25:38.380Z,85.47
2019-01-08T02:26:38.400Z,85.38
2019-01-08T02:27:38.360Z,85.28
2019-01-08T02:28:38.379Z,85.57
2019-01-08T02:29:38.396Z,85.42
2019-01-08T02:30:38.402Z,85.47
2019-01-08T02:31:38.377Z,85.52
2019-01-08T02:32:38.431Z,85.47
2019-01-08T02:33:38.407Z,85.38
2019-01-08T02:34:38.442Z,85.33
2019-01-08T02:35:38.406Z,85.52
2019-01-08T02:36:38.406Z,85.42
2019-01-08T02:37:38.420Z,85.33
2019-01-08T02:38:38.484Z,85.66
2019-01-08T02:39:38.419Z,85.71
2019-01-08T02:40:38.424Z,85.28
2019-01-08T02:41:38.486Z,85.28
2019-01-08T02:42:38.499Z,85.90
2019-01-08T02:43:38.444Z,85.42
2019-01-08T02:44:38.585Z,85.71
2019-01-08T02:45:38.471Z,85.71
2019-01-08T02:46:38.553Z,85.80
2019-01-08T02:47:38.495Z,85.99
2019-01-08T02:48:38.469Z,85.90
2019-01-08T02:49:38.454Z,85.99
2019-01-08T02:50:38.475Z,85.86
2019-01-08T02:51:38.501Z,86.18
2019-01-08T02:52:38.521Z,86.28
2019-01-08T02:53:38.481Z,86.28
2019-01-08T02:54:38.614Z,86.28
2019-01-08T02:55:38.488Z,85.90
2019-01-08T02:56:38.496Z,86.05
2019-01-08T02:57:38.497Z,85.90
2019-01-08T02:58:38.574Z,85.90
2019-01-08T02:59:38.537Z,85.90
2019-01-08T03:00:38.514Z,85.90
2019-01-08T03:01:38.523Z,85.90
2019-01-08T03:02:38.521Z,85.71
2019-01-08T03:03:38.530Z,85.61
2019-01-08T03:04:38.579Z,85.80
2019-01-08T03:05:38.520Z,85.80
2019-01-08T03:06:38.584Z,85.33
2019-01-08T03:07:38.534Z,85.24
2019-01-08T03:08:38.587Z,85.24
2019-01-08T03:09:38.566Z,85.42
2019-01-08T03:10:38.560Z,85.42
2019-01-08T03:11:38.566Z,85.33
2019-01-08T03:12:38.563Z,85.52
2019-01-08T03:13:38.580Z,85.14
2019-01-08T03:14:38.633Z,85.52
2019-01-08T03:15:38.636Z,85.33
2019-01-08T03:16:38.576Z,85.04
2019-01-08T03:17:38.588Z,85.61
2019-01-08T03:18:38.590Z,85.99
2019-01-08T03:19:38.637Z,85.95
2019-01-08T03:20:38.656Z,86.09
2019-01-08T03:21:38.607Z,86.18
2019-01-08T03:22:38.603Z,85.52
2019-01-08T03:23:38.614Z,85.52
2019-01-08T03:24:38.774Z,85.71
2019-01-08T03:25:38.615Z,85.71
2019-01-08T03:26:38.619Z,85.24
2019-01-08T03:27:38.631Z,85.42
2019-01-08T03:28:38.644Z,85.24
2019-01-08T03:29:38.642Z,85.24
2019-01-08T03:30:38.671Z,85.04
2019-01-08T03:31:38.638Z,85.24
2019-01-08T03:32:38.654Z,85.33
2019-01-08T03:33:38.655Z,85.71
2019-01-08T03:34:38.678Z,85.33
2019-01-08T03:35:38.692Z,85.33
2019-01-08T03:36:38.676Z,85.52
2019-01-08T03:37:38.667Z,85.33
2019-01-08T03:38:38.716Z,85.52
2019-01-08T03:39:38.683Z,85.33
2019-01-08T03:40:38.725Z,85.42
2019-01-08T03:41:38.703Z,85.14
2019-01-08T03:42:38.683Z,85.52
2019-01-08T03:43:38.692Z,85.61
2019-01-08T03:44:38.693Z,86.09
2019-01-08T03:45:38.772Z,85.80
2019-01-08T03:46:38.741Z,86.09
2019-01-08T03:47:38.717Z,85.80
2019-01-08T03:48:38.729Z,85.04
2019-01-08T03:49:38.730Z,85.71
2019-01-08T03:50:38.729Z,85.33
2019-01-08T03:51:38.755Z,85.52
2019-01-08T03:52:38.748Z,85.52
2019-01-08T03:53:38.744Z,85.52
2019-01-08T03:54:38.743Z,85.52
2019-01-08T03:55:38.759Z,85.33
2019-01-08T03:56:38.770Z,85.14
2019-01-08T03:57:38.763Z,85.80
2019-01-08T03:58:38.771Z,84.76
2019-01-08T03:59:42.074Z,84.66
2019-01-08T04:00:38.788Z,85.14
2019-01-08T04:01:38.790Z,85.42
2019-01-08T04:02:38.782Z,85.28
2019-01-08T04:03:38.790Z,85.19
2019-01-08T04:04:38.853Z,85.24
2019-01-08T04:05:38.798Z,85.66
2019-01-08T04:06:38.810Z,85.66
2019-01-08T04:07:38.806Z,85.28
2019-01-08T04:08:38.822Z,85.57
2019-01-08T04:09:38.821Z,85.19
2019-01-08T04:10:38.822Z,86.14
2019-01-08T04:11:38.814Z,85.47
2019-01-08T04:12:38.832Z,85.66
2019-01-08T04:13:38.837Z,85.38
2019-01-08T04:14:38.848Z,85.47
2019-01-08T04:15:38.858Z,85.95
2019-01-08T04:16:38.836Z,85.47
2019-01-08T04:17:38.848Z,86.05
2019-01-08T04:18:38.855Z,85.76
2019-01-08T04:19:38.852Z,86.05
2019-01-08T04:20:38.921Z,85.76
2019-01-08T04:21:38.854Z,86.14
2019-01-08T04:22:38.865Z,85.66
2019-01-08T04:23:38.866Z,86.14
2019-01-08T04:24:38.914Z,85.86
2019-01-08T04:25:38.872Z,85.95
2019-01-08T04:26:38.900Z,86.24
2019-01-08T04:27:38.900Z,85.95
2019-01-08T04:28:38.890Z,85.95
2019-01-08T04:29:38.895Z,85.95
2019-01-08T04:30:38.890Z,85.86
2019-01-08T04:31:38.948Z,86.14
2019-01-08T04:32:38.914Z,86.52
2019-01-08T04:33:38.920Z,86.43
2019-01-08T04:34:38.950Z,86.71
2019-01-08T04:35:38.914Z,86.24
2019-01-08T04:36:38.918Z,86.71
2019-01-08T04:37:38.951Z,86.43
2019-01-08T04:38:38.960Z,86.99
2019-01-08T04:39:38.944Z,86.43
2019-01-08T04:40:38.936Z,86.90
2019-01-08T04:41:39.009Z,86.43
2019-01-08T04:42:38.948Z,86.43
2019-01-08T04:43:38.959Z,86.52
2019-01-08T04:44:38.960Z,86.33
2019-01-08T04:45:38.987Z,86.24
2019-01-08T04:46:38.958Z,86.05
2019-01-08T04:47:38.982Z,85.86
2019-01-08T04:48:39.005Z,86.24
2019-01-08T04:49:38.979Z,86.24
2019-01-08T04:50:38.984Z,86.33
2019-01-08T04:51:38.992Z,86.76
2019-01-08T04:52:39.051Z,86.24
2019-01-08T04:53:38.985Z,86.14
2019-01-08T04:54:38.998Z,86.14
2019-01-08T04:55:39.008Z,85.72
2019-01-08T04:56:39.048Z,86.38
2019-01-08T04:57:39.058Z,86.38
2019-01-08T04:58:39.016Z,87.05
2019-01-08T04:59:39.032Z,86.95
2019-01-08T05:00:39.023Z,87.05
2019-01-08T05:01:39.039Z,87.05
2019-01-08T05:02:39.019Z,86.95
2019-01-08T05:03:39.056Z,86.38
2019-01-08T05:04:39.045Z,86.67
2019-01-08T05:05:39.033Z,86.47
2019-01-08T05:06:39.077Z,86.95
2019-01-08T05:07:39.038Z,87.43
2019-01-08T05:08:39.096Z,87.05
2019-01-08T05:09:39.051Z,87.81
2019-01-08T05:10:39.065Z,87.71
2019-01-08T05:11:39.063Z,86.67
2019-01-08T05:12:39.114Z,87.05
2019-01-08T05:13:39.087Z,87.14
2019-01-08T05:14:39.077Z,87.34
2019-01-08T05:15:39.095Z,87.14
2019-01-08T05:16:39.102Z,87.24
2019-01-08T05:17:39.154Z,87.14
2019-01-08T05:18:39.097Z,87.71
2019-01-08T05:19:39.094Z,87.52
2019-01-08T05:20:39.110Z,87.62
2019-01-08T05:21:39.094Z,87.05
2019-01-08T05:22:39.113Z,87.24
2019-01-08T05:23:39.131Z,87.14
2019-01-08T05:24:39.171Z,86.76
2019-01-08T05:25:39.117Z,87.52
2019-01-08T05:26:39.110Z,87.71
2019-01-08T05:27:39.133Z,87.71
2019-01-08T05:28:39.152Z,87.71
2019-01-08T05:29:39.137Z,87.81
2019-01-08T05:30:39.130Z,87.71
2019-01-08T05:31:39.177Z,87.43
2019-01-08T05:32:39.143Z,87.52
2019-01-08T05:33:39.172Z,87.62
2019-01-08T05:34:39.154Z,87.24
2019-01-08T05:35:39.158Z,87.71
2019-01-08T05:36:39.160Z,87.52
2019-01-08T05:37:39.169Z,87.62
2019-01-08T05:38:39.218Z,87.71
2019-01-08T05:39:39.166Z,87.71
2019-01-08T05:40:39.183Z,86.67
2019-01-08T05:41:39.200Z,87.71
2019-01-08T05:42:39.198Z,87.14
2019-01-08T05:43:39.176Z,87.90
2019-01-08T05:44:39.246Z,87.52
2019-01-08T05:45:39.185Z,87.52
2019-01-08T05:46:39.196Z,87.71
2019-01-08T05:47:39.199Z,87.24
2019-01-08T05:48:39.226Z,86.86
2019-01-08T05:49:39.227Z,86.76
2019-01-08T05:50:39.213Z,87.05
2019-01-08T05:51:39.209Z,87.05
2019-01-08T05:52:39.232Z,87.14
2019-01-08T05:53:39.242Z,87.34
2019-01-08T05:54:39.270Z,87.34
2019-01-08T05:55:39.241Z,87.14
2019-01-08T05:56:39.302Z,87.24
2019-01-08T05:57:39.245Z,86.86
2019-01-08T05:58:39.247Z,86.76
2019-01-08T05:59:39.250Z,86.76
2019-01-08T06:00:39.342Z,86.95
2019-01-08T06:01:39.270Z,86.38
2019-01-08T06:02:39.275Z,86.86
2019-01-08T06:03:39.259Z,86.47
2019-01-08T06:04:39.323Z,86.67
2019-01-08T06:05:39.298Z,87.09
2019-01-08T06:06:39.302Z,86.67
2019-01-08T06:07:39.277Z,86.33
2019-01-08T06:08:39.279Z,86.67
2019-01-08T06:09:39.283Z,86.33
2019-01-08T06:10:39.926Z,86.38
2019-01-08T06:11:39.321Z,86.00
2019-01-08T06:12:39.375Z,86.24
2019-01-08T06:13:39.326Z,85.81
2019-01-08T06:14:39.302Z,86.14
2019-01-08T06:15:39.342Z,86.05
2019-01-08T06:16:39.317Z,85.76
2019-01-08T06:17:39.323Z,85.86
2019-01-08T06:18:39.334Z,85.47
2019-01-08T06:19:39.352Z,85.47
2019-01-08T06:20:39.406Z,84.81
2019-01-08T06:21:39.368Z,84.91
2019-01-08T06:22:39.347Z,84.72
2019-01-08T06:23:39.338Z,85.00
2019-01-08T06:24:39.363Z,85.10
2019-01-08T06:25:39.373Z,84.81
2019-01-08T06:26:39.383Z,84.72
2019-01-08T06:27:39.381Z,84.81
2019-01-08T06:28:39.412Z,84.81
2019-01-08T06:29:39.373Z,85.28
2019-01-08T06:30:39.409Z,85.47
2019-01-08T06:31:39.428Z,84.81
2019-01-08T06:32:39.427Z,84.52
2019-01-08T06:33:39.378Z,84.81
2019-01-08T06:34:39.403Z,85.28
2019-01-08T06:35:39.391Z,85.28
2019-01-08T06:36:39.402Z,85.47
2019-01-08T06:37:39.425Z,85.28
2019-01-08T06:38:39.402Z,85.38
2019-01-08T06:39:39.425Z,85.10
2019-01-08T06:40:39.418Z,85.28
2019-01-08T06:41:39.428Z,85.38
2019-01-08T06:42:39.444Z,85.47
2019-01-08T06:43:39.434Z,85.28
2019-01-08T06:44:39.420Z,85.38
2019-01-08T06:45:39.529Z,85.28
2019-01-08T06:46:43.153Z,85.47
2019-01-08T06:47:39.442Z,85.38
2019-01-08T06:48:39.477Z,85.28
2019-01-08T06:49:39.490Z,85.28
2019-01-08T06:50:39.453Z,85.28
2019-01-08T06:51:39.466Z,85.28
2019-01-08T06:52:39.484Z,85.28
2019-01-08T06:53:39.490Z,85.38
2019-01-08T06:54:39.536Z,85.38
2019-01-08T06:55:39.476Z,85.10
2019-01-08T06:56:39.544Z,85.47
2019-01-08T06:57:39.483Z,85.47
2019-01-08T06:58:39.510Z,85.28
2019-01-08T06:59:39.519Z,85.28
2019-01-08T07:00:39.505Z,85.28
2019-01-08T07:01:39.515Z,85.28
2019-01-08T07:02:39.578Z,85.47
2019-01-08T07:03:39.529Z,85.95
2019-01-08T07:04:39.543Z,85.76
2019-01-08T07:05:39.546Z,86.14
2019-01-08T07:06:39.530Z,86.43
2019-01-08T07:07:39.533Z,85.47
2019-01-08T07:08:39.586Z,85.57
2019-01-08T07:09:39.544Z,85.38
2019-01-08T07:10:39.541Z,85.28
2019-01-08T07:11:39.553Z,85.47
2019-01-08T07:12:39.541Z,85.38
2019-01-08T07:13:39.581Z,85.47
2019-01-08T07:14:39.598Z,85.10
2019-01-08T07:15:39.557Z,84.81
2019-01-08T07:16:39.576Z,84.72
2019-01-08T07:17:39.577Z,84.91
2019-01-08T07:18:39.578Z,84.81
2019-01-08T07:19:39.609Z,85.00
2019-01-08T07:20:39.611Z,85.10
2019-01-08T07:21:39.582Z,84.72
2019-01-08T07:22:39.636Z,84.91
2019-01-08T07:23:39.626Z,85.00
2019-01-08T07:24:39.603Z,84.91
2019-01-08T07:25:42.319Z,85.10
2019-01-08T07:26:39.603Z,84.24
2019-01-08T07:27:39.632Z,84.24
2019-01-08T07:28:39.624Z,84.43
2019-01-08T07:29:39.616Z,84.52
2019-01-08T07:30:41.731Z,84.43
2019-01-08T07:31:39.698Z,84.43
2019-01-08T07:32:39.636Z,84.62
2019-01-08T07:33:39.643Z,84.43
2019-01-08T07:34:39.648Z,84.24
2019-01-08T07:35:39.718Z,84.52
2019-01-08T07:36:39.683Z,84.62
2019-01-08T07:37:39.651Z,84.62
2019-01-08T07:38:39.691Z,84.14
2019-01-08T07:39:39.673Z,84.52
2019-01-08T07:40:41.373Z,84.43
2019-01-08T07:41:39.761Z,84.24
2019-01-08T07:42:39.689Z,84.43
2019-01-08T07:43:39.692Z,84.33
2019-01-08T07:44:39.719Z,84.72
2019-01-08T07:45:39.718Z,84.91
2019-01-08T07:46:40.310Z,84.72
2019-01-08T07:47:39.711Z,84.33
2019-01-08T07:48:39.714Z,84.43
2019-01-08T07:49:39.700Z,84.52
2019-01-08T07:50:39.710Z,84.72
2019-01-08T07:51:39.746Z,84.52
2019-01-08T07:52:39.746Z,84.62
2019-01-08T07:53:39.740Z,84.24
2019-01-08T07:54:39.729Z,84.43
2019-01-08T07:55:39.739Z,84.43
2019-01-08T07:56:39.738Z,84.24
2019-01-08T07:57:39.750Z,84.24
2019-01-08T07:58:39.777Z,84.24
2019-01-08T07:59:39.798Z,84.33
2019-01-08T08:00:39.749Z,84.24
2019-01-08T08:01:39.750Z,84.24
2019-01-08T08:02:39.765Z,84.52
2019-01-08T08:03:39.926Z,84.33
2019-01-08T08:04:47.330Z,84.52
2019-01-08T08:05:39.785Z,83.76
2019-01-08T08:06:39.784Z,83.67
2019-01-08T08:07:39.800Z,83.67
2019-01-08T08:08:39.842Z,83.48
2019-01-08T08:09:39.817Z,83.67
2019-01-08T08:10:39.809Z,83.52
2019-01-08T08:11:39.877Z,83.90
2019-01-08T08:12:39.808Z,83.58
2019-01-08T08:13:39.843Z,83.62
2019-01-08T08:14:39.821Z,83.81
2019-01-08T08:15:39.874Z,83.58
2019-01-08T08:16:39.828Z,83.71
2019-01-08T08:17:39.837Z,83.39
2019-01-08T08:18:39.851Z,83.52
2019-01-08T08:19:39.829Z,83.62
2019-01-08T08:20:39.858Z,84.56
2019-01-08T08:21:39.902Z,83.90
2019-01-08T08:22:39.854Z,83.95
2019-01-08T08:23:39.872Z,83.71
2019-01-08T08:24:39.861Z,83.71
2019-01-08T08:25:39.928Z,84.56
2019-01-08T08:26:39.884Z,84.24
2019-01-08T08:27:39.938Z,84.28
2019-01-08T08:28:39.868Z,84.47
2019-01-08T08:29:39.871Z,84.56
2019-01-08T08:30:39.877Z,84.56
2019-01-08T08:31:39.885Z,84.09
2019-01-08T08:32:39.907Z,84.47
2019-01-08T08:33:40.005Z,84.33
2019-01-08T08:34:39.908Z,84.62
2019-01-08T08:35:39.906Z,84.33
2019-01-08T08:36:39.935Z,84.24
2019-01-08T08:37:39.958Z,84.33
2019-01-08T08:38:39.976Z,84.43
2019-01-08T08:39:39.919Z,84.24
2019-01-08T08:40:39.927Z,84.62
2019-01-08T08:41:39.951Z,84.62
2019-01-08T08:42:39.940Z,84.24
2019-01-08T08:43:39.961Z,84.43
2019-01-08T08:44:39.963Z,84.24
2019-01-08T08:45:39.979Z,83.86
2019-01-08T08:46:39.956Z,84.52
2019-01-08T08:47:39.979Z,84.43
2019-01-08T08:48:40.029Z,84.24
2019-01-08T08:49:39.967Z,85.00
2019-01-08T08:50:39.982Z,85.00
2019-01-08T08:51:39.985Z,84.81
2019-01-08T08:52:40.003Z,84.72
2019-01-08T08:53:39.991Z,85.47
2019-01-08T08:54:40.011Z,85.00
2019-01-08T08:55:40.272Z,84.91
2019-01-08T08:56:39.997Z,84.91
2019-01-08T08:57:40.001Z,85.00
2019-01-08T08:58:40.009Z,84.72
2019-01-08T08:59:40.053Z,85.14
2019-01-08T09:00:40.021Z,85.14
2019-01-08T09:01:40.127Z,84.28
2019-01-08T09:02:40.046Z,84.19
2019-01-08T09:03:40.046Z,84.38
2019-01-08T09:04:40.042Z,84.28
2019-01-08T09:05:40.055Z,84.19
2019-01-08T09:06:40.142Z,84.28
2019-01-08T09:07:40.070Z,84.38
2019-01-08T09:08:40.094Z,83.52
2019-01-08T09:09:40.113Z,83.71
2019-01-08T09:10:40.060Z,83.71
2019-01-08T09:11:40.057Z,83.42
2019-01-08T09:12:40.074Z,83.52
2019-01-08T09:13:40.090Z,83.62
2019-01-08T09:14:40.204Z,83.23
2019-01-08T09:15:40.823Z,83.52
2019-01-08T09:16:40.091Z,83.62
2019-01-08T09:17:40.178Z,83.62
2019-01-08T09:18:40.098Z,83.71
2019-01-08T09:19:40.109Z,83.71
2019-01-08T09:20:40.116Z,83.71
2019-01-08T09:21:40.163Z,83.71
2019-01-08T09:22:40.112Z,84.00
2019-01-08T09:23:40.125Z,83.62
2019-01-08T09:24:40.117Z,83.71
2019-01-08T09:25:40.133Z,84.09
2019-01-08T09:26:40.176Z,83.71
2019-01-08T09:27:40.191Z,84.00
2019-01-08T09:28:40.152Z,83.42
2019-01-08T09:29:40.139Z,83.52
2019-01-08T09:30:40.144Z,83.52
2019-01-08T09:31:40.153Z,83.71
2019-01-08T09:32:40.160Z,83.76
2019-01-08T09:33:40.200Z,84.56
2019-01-08T09:34:40.195Z,84.76
2019-01-08T09:35:40.179Z,84.28
2019-01-08T09:36:40.171Z,84.28
2019-01-08T09:37:40.208Z,84.09
2019-01-08T09:38:40.215Z,84.24
2019-01-08T09:39:40.184Z,84.33
2019-01-08T09:40:40.215Z,84.56
2019-01-08T09:41:40.222Z,84.52
2019-01-08T09:42:40.249Z,84.47
2019-01-08T09:43:40.199Z,85.14
2019-01-08T09:44:40.209Z,84.38
2019-01-08T09:45:40.241Z,84.47
2019-01-08T09:46:40.266Z,84.56
2019-01-08T09:47:40.220Z,84.72
2019-01-08T09:48:40.243Z,84.47
2019-01-08T09:49:40.236Z,84.38
2019-01-08T09:50:40.252Z,84.95
2019-01-08T09:51:40.336Z,84.56
2019-01-08T09:52:40.259Z,84.52
2019-01-08T09:53:40.289Z,84.38
2019-01-08T09:54:40.247Z,84.52
2019-01-08T09:55:40.249Z,84.47
2019-01-08T09:56:40.254Z,84.91
2019-01-08T09:57:40.298Z,84.72
2019-01-08T09:58:40.290Z,84.76
2019-01-08T09:59:40.418Z,84.81
2019-01-08T10:00:40.306Z,85.28
2019-01-08T10:01:40.290Z,85.42
2019-01-08T10:02:40.292Z,84.91
2019-01-08T10:03:40.299Z,84.47
2019-01-08T10:04:40.310Z,85.24
2019-01-08T10:05:40.325Z,84.38
2019-01-08T10:06:40.334Z,84.56
2019-01-08T10:07:40.318Z,84.56
2019-01-08T10:08:40.329Z,84.05
2019-01-08T10:09:40.373Z,84.38
2019-01-08T10:10:40.327Z,85.14
2019-01-08T10:11:40.362Z,84.56
2019-01-08T10:12:40.385Z,84.09
2019-01-08T10:13:40.379Z,84.28
2019-01-08T10:14:40.354Z,84.56
2019-01-08T10:15:40.380Z,84.38
2019-01-08T10:16:40.355Z,84.76
2019-01-08T10:17:40.355Z,84.47
2019-01-08T10:18:40.362Z,84.28
2019-01-08T10:19:40.362Z,84.47
2019-01-08T10:20:40.416Z,84.47
2019-01-08T10:21:40.405Z,84.28
2019-01-08T10:22:40.390Z,84.19
2019-01-08T10:23:40.394Z,84.28
2019-01-08T10:24:40.488Z,84.47
2019-01-08T10:25:40.415Z,84.47
2019-01-08T10:26:40.568Z,85.24
2019-01-08T10:27:40.432Z,84.38
2019-01-08T10:28:40.405Z,84.47
2019-01-08T10:29:40.408Z,84.76
2019-01-08T10:30:41.263Z,84.56
2019-01-08T10:31:40.509Z,84.47
2019-01-08T10:32:40.425Z,84.28
2019-01-08T10:33:40.437Z,84.56
2019-01-08T10:34:40.443Z,84.28
2019-01-08T10:35:40.463Z,84.66
2019-01-08T10:36:40.450Z,84.38
2019-01-08T10:37:40.496Z,84.56
2019-01-08T10:38:40.449Z,84.85
2019-01-08T10:39:40.458Z,85.04
2019-01-08T10:40:40.465Z,85.04
2019-01-08T10:41:40.468Z,84.56
2019-01-08T10:42:40.475Z,84.47
2019-01-08T10:43:40.610Z,84.38
2019-01-08T10:44:40.470Z,85.24
2019-01-08T10:45:40.489Z,84.38
2019-01-08T10:46:40.508Z,84.28
2019-01-08T10:47:40.531Z,84.19
2019-01-08T10:48:40.496Z,84.56
2019-01-08T10:49:40.523Z,84.47
2019-01-08T10:50:40.521Z,84.56
2019-01-08T10:51:40.506Z,84.56
2019-01-08T10:52:40.504Z,83.81
2019-01-08T10:53:40.544Z,83.42
2019-01-08T10:54:40.514Z,83.71
2019-01-08T10:55:40.546Z,83.52
2019-01-08T10:56:41.261Z,83.42
2019-01-08T10:57:40.628Z,83.62
2019-01-08T10:58:40.540Z,83.42
2019-01-08T10:59:40.601Z,83.42
2019-01-08T11:00:40.552Z,82.86
2019-01-08T11:01:41.011Z,82.95
2019-01-08T11:02:40.633Z,82.95
2019-01-08T11:03:40.606Z,83.90
2019-01-08T11:04:40.620Z,83.42
2019-01-08T11:05:40.569Z,83.75
2019-01-08T11:06:40.581Z,84.00
2019-01-08T11:07:40.618Z,83.62
2019-01-08T11:08:40.576Z,83.81
2019-01-08T11:09:40.599Z,83.47
2019-01-08T11:10:40.600Z,83.81
2019-01-08T11:11:40.629Z,83.90
2019-01-08T11:12:40.621Z,83.90
2019-01-08T11:13:40.601Z,83.62
2019-01-08T11:14:40.636Z,83.42
2019-01-08T11:15:40.619Z,83.81
2019-01-08T11:16:40.626Z,83.62
2019-01-08T11:17:40.620Z,83.90
2019-01-08T11:18:40.693Z,83.71
2019-01-08T11:19:41.403Z,84.47
2019-01-08T11:20:40.645Z,84.47
2019-01-08T11:21:40.652Z,84.38
2019-01-08T11:22:40.663Z,84.19
2019-01-08T11:23:40.671Z,84.28
2019-01-08T11:24:40.719Z,84.85
2019-01-08T11:25:40.668Z,84.38
2019-01-08T11:26:40.676Z,84.28
2019-01-08T11:27:40.676Z,83.81
2019-01-08T11:28:40.676Z,83.81
2019-01-08T11:29:40.713Z,83.90
2019-01-08T11:30:40.776Z,84.47
2019-01-08T11:31:48.625Z,84.76
2019-01-08T11:32:40.717Z,84.09
2019-01-08T11:33:40.693Z,83.52
2019-01-08T11:34:40.710Z,83.81
2019-01-08T11:35:42.278Z,83.62
2019-01-08T11:36:40.768Z,83.71
2019-01-08T11:37:40.767Z,84.56
2019-01-08T11:38:40.750Z,84.56
2019-01-08T11:39:40.773Z,84.09
2019-01-08T11:40:40.726Z,84.66
2019-01-08T11:41:40.785Z,84.47
2019-01-08T11:42:40.748Z,84.47
2019-01-08T11:43:40.757Z,84.38
2019-01-08T11:44:40.791Z,84.28
2019-01-08T11:45:40.895Z,84.47
2019-01-08T11:46:40.763Z,84.76
2019-01-08T11:47:40.764Z,84.19
2019-01-08T11:48:40.799Z,84.47
2019-01-08T11:49:40.772Z,84.47
2019-01-08T11:50:40.828Z,84.47
2019-01-08T11:51:40.800Z,84.56
2019-01-08T11:52:40.786Z,84.56
2019-01-08T11:53:40.809Z,84.76
2019-01-08T11:54:41.380Z,84.85
2019-01-08T11:55:40.816Z,84.95
2019-01-08T11:56:40.842Z,84.38
2019-01-08T11:57:40.853Z,84.95
2019-01-08T11:58:40.824Z,84.85
2019-01-08T11:59:40.824Z,84.95
2019-01-08T12:00:40.999Z,84.76
2019-01-08T12:01:40.863Z,84.09
2019-01-08T12:02:47.728Z,84.56
2019-01-08T12:03:40.837Z,84.19
2019-01-08T12:04:40.906Z,84.38
2019-01-08T12:05:40.842Z,84.76
2019-01-08T12:06:40.963Z,84.47
2019-01-08T12:07:40.866Z,84.47
2019-01-08T12:08:40.918Z,84.56
2019-01-08T12:09:40.861Z,85.24
2019-01-08T12:10:40.904Z,84.85
2019-01-08T12:11:40.928Z,85.04
2019-01-08T12:12:40.900Z,84.85
2019-01-08T12:13:40.889Z,84.56
2019-01-08T12:14:40.892Z,84.66
2019-01-08T12:15:40.899Z,84.56
2019-01-08T12:16:40.903Z,84.47
2019-01-08T12:17:40.968Z,84.52
2019-01-08T12:18:40.908Z,84.28
2019-01-08T12:19:40.903Z,84.56
2019-01-08T12:20:40.932Z,84.47
2019-01-08T12:21:40.917Z,85.04
2019-01-08T12:22:41.246Z,84.56
2019-01-08T12:23:40.935Z,84.47
2019-01-08T12:24:40.945Z,84.76
2019-01-08T12:25:40.963Z,84.56
2019-01-08T12:26:40.999Z,84.47
2019-01-08T12:27:40.974Z,84.33
2019-01-08T12:28:40.941Z,85.24
2019-01-08T12:29:40.967Z,84.47
2019-01-08T12:30:40.971Z,84.76
2019-01-08T12:31:40.996Z,84.85
2019-01-08T12:32:40.975Z,85.14
2019-01-08T12:33:41.008Z,84.56
2019-01-08T12:34:40.971Z,84.47
2019-01-08T12:35:40.970Z,84.42
2019-01-08T12:36:41.007Z,84.33
2019-01-08T12:37:42.103Z,84.38
2019-01-08T12:38:41.199Z,84.56
2019-01-08T12:39:41.085Z,84.42
2019-01-08T12:40:41.010Z,84.13
2019-01-08T12:41:41.004Z,84.19
2019-01-08T12:42:41.015Z,84.42
2019-01-08T12:43:41.093Z,84.56
2019-01-08T12:44:41.073Z,85.33
2019-01-08T12:45:41.089Z,84.80
2019-01-08T12:46:41.037Z,84.89
2019-01-08T12:47:41.069Z,84.09
2019-01-08T12:48:41.049Z,84.42
2019-01-08T12:49:41.073Z,84.33
2019-01-08T12:50:41.083Z,84.00
2019-01-08T12:51:41.053Z,83.81
2019-01-08T12:52:41.085Z,83.71